createdAt,value
2023-02-12T00:01:25.163Z,7.57
2023-02-12T00:03:52.458Z,8.80
2023-02-12T00:06:19.707Z,8.23
2023-02-12T00:08:49.565Z,7.90
2023-02-12T00:11:17.488Z,8.07
2023-02-12T00:13:44.885Z,7.73
2023-02-12T00:16:13.915Z,8.20
2023-02-12T00:18:41.123Z,8.53
2023-02-12T00:21:12.614Z,8.40
2023-02-12T00:23:41.158Z,8.07
2023-02-12T00:26:09.129Z,8.90
2023-02-12T00:28:36.967Z,8.63
2023-02-12T00:31:08.713Z,8.30
2023-02-12T00:33:36.069Z,9.33
2023-02-12T00:36:03.373Z,9.47
2023-02-12T00:38:30.544Z,8.63
2023-02-12T00:40:57.663Z,9.27
2023-02-12T00:43:24.893Z,9.33
2023-02-12T00:45:52.198Z,8.97
2023-02-12T00:48:19.414Z,8.63
2023-02-12T00:50:47.331Z,10.37
2023-02-12T00:53:14.970Z,9.73
2023-02-12T00:55:42.247Z,9.63
2023-02-12T00:58:09.739Z,10.37
2023-02-12T01:00:36.961Z,10.73
2023-02-12T01:03:04.287Z,10.43
2023-02-12T01:05:31.442Z,10.67
2023-02-12T01:07:58.656Z,10.37
2023-02-12T01:10:26.062Z,13.00
2023-02-12T01:12:53.262Z,10.17
2023-02-12T01:15:20.516Z,10.37
2023-02-12T01:17:47.702Z,10.57
2023-02-12T01:20:17.655Z,10.33
2023-02-12T01:22:45.170Z,9.40
2023-02-12T01:25:12.804Z,10.37
2023-02-12T01:27:39.967Z,9.47
2023-02-12T01:30:08.096Z,9.63
2023-02-12T01:32:35.627Z,10.80
2023-02-12T01:35:02.777Z,9.93
2023-02-12T01:37:29.932Z,9.70
2023-02-12T01:39:57.098Z,10.90
2023-02-12T01:42:24.245Z,10.70
2023-02-12T01:45:10.208Z,9.43
2023-02-12T01:47:37.413Z,9.53
2023-02-12T01:50:04.752Z,9.57
2023-02-12T01:52:34.329Z,10.40
2023-02-12T01:55:03.040Z,11.10
2023-02-12T01:57:31.961Z,10.50
2023-02-12T02:00:01.064Z,9.93
2023-02-12T02:02:28.747Z,10.13
2023-02-12T02:04:58.297Z,9.23
2023-02-12T02:07:25.748Z,9.87
2023-02-12T02:09:53.548Z,9.93
2023-02-12T02:12:52.961Z,9.27
2023-02-12T02:15:20.256Z,11.47
2023-02-12T02:17:53.516Z,10.23
2023-02-12T02:20:39.602Z,9.10
2023-02-12T02:23:07.525Z,10.40
2023-02-12T02:25:50.027Z,10.50
2023-02-12T02:28:32.514Z,10.70
2023-02-12T02:31:04.024Z,9.87
2023-02-12T02:33:40.712Z,9.23
2023-02-12T02:36:25.990Z,9.47
2023-02-12T02:39:05.611Z,11.23
2023-02-12T02:41:46.972Z,10.80
2023-02-12T02:44:18.020Z,10.00
2023-02-12T02:46:49.562Z,9.47
2023-02-12T02:49:25.067Z,9.43
2023-02-12T02:51:56.605Z,9.40
2023-02-12T02:54:28.529Z,10.33
2023-02-12T02:56:57.621Z,9.30
2023-02-12T02:59:29.116Z,9.73
2023-02-12T03:02:16.665Z,8.80
2023-02-12T03:04:45.634Z,10.07
2023-02-12T03:07:19.525Z,8.60
2023-02-12T03:09:59.658Z,9.40
2023-02-12T03:12:34.319Z,9.43
2023-02-12T03:15:08.868Z,10.40
2023-02-12T03:17:38.522Z,10.43
2023-02-12T03:20:08.975Z,9.30
2023-02-12T03:22:37.566Z,10.10
2023-02-12T03:25:12.105Z,10.70
2023-02-12T03:27:41.152Z,10.77
2023-02-12T03:30:08.759Z,9.40
2023-02-12T03:32:41.703Z,9.73
2023-02-12T03:35:23.993Z,10.73
2023-02-12T03:37:56.223Z,10.83
2023-02-12T03:40:43.641Z,15.07
2023-02-12T03:43:15.664Z,10.53
2023-02-12T03:45:50.855Z,10.00
2023-02-12T03:48:36.390Z,11.47
2023-02-12T03:51:03.564Z,11.13
2023-02-12T03:53:32.030Z,14.53
2023-02-12T03:56:05.379Z,11.40
2023-02-12T03:58:35.094Z,13.50
2023-02-12T04:01:02.321Z,10.73
2023-02-12T04:03:30.160Z,11.00
2023-02-12T04:05:57.552Z,11.27
2023-02-12T04:08:25.693Z,8.20
2023-02-12T04:11:08.095Z,10.30
2023-02-12T04:13:42.925Z,11.23
2023-02-12T04:16:19.482Z,14.87
2023-02-12T04:18:49.428Z,12.60
2023-02-12T04:21:19.413Z,10.83
2023-02-12T04:24:05.206Z,15.33
2023-02-12T04:26:43.320Z,13.97
2023-02-12T04:29:25.567Z,11.70
2023-02-12T04:31:57.860Z,14.40
2023-02-12T04:34:24.970Z,16.43
2023-02-12T04:36:58.942Z,13.47
2023-02-12T04:39:30.748Z,9.77
2023-02-12T04:42:02.031Z,10.00
2023-02-12T04:44:33.818Z,9.80
2023-02-12T04:47:01.248Z,9.77
2023-02-12T04:49:28.541Z,10.17
2023-02-12T04:51:55.795Z,12.33
2023-02-12T04:54:24.272Z,12.67
2023-02-12T04:56:51.764Z,12.23
2023-02-12T04:59:18.988Z,10.47
2023-02-12T05:01:46.371Z,12.07
2023-02-12T05:04:14.556Z,12.07
2023-02-12T05:06:41.996Z,10.20
2023-02-12T05:09:10.539Z,11.37
2023-02-12T05:11:37.645Z,8.00
2023-02-12T05:14:04.851Z,10.83
2023-02-12T05:16:32.000Z,14.87
2023-02-12T05:18:59.257Z,11.07
2023-02-12T05:21:26.449Z,10.37
2023-02-12T05:23:53.575Z,14.03
2023-02-12T05:26:21.348Z,7.27
2023-02-12T05:28:48.870Z,8.17
2023-02-12T05:31:19.377Z,9.47
2023-02-12T05:33:48.736Z,8.13
2023-02-12T05:36:20.672Z,9.43
2023-02-12T05:38:47.807Z,12.83
2023-02-12T05:41:17.434Z,6.90
2023-02-12T05:43:46.537Z,8.10
2023-02-12T05:46:15.195Z,7.17
2023-02-12T05:48:42.350Z,8.43
2023-02-12T05:51:10.689Z,7.47
2023-02-12T05:53:38.798Z,9.20
2023-02-12T05:56:16.200Z,9.60
2023-02-12T05:58:44.660Z,7.60
2023-02-12T06:01:13.411Z,8.83
2023-02-12T06:03:40.734Z,8.60
2023-02-12T06:06:08.089Z,10.30
2023-02-12T06:08:35.303Z,7.90
2023-02-12T06:11:03.306Z,9.10
2023-02-12T06:13:30.986Z,8.37
2023-02-12T06:15:59.034Z,5.97
2023-02-12T06:18:26.630Z,6.30
2023-02-12T06:20:56.797Z,6.27
2023-02-12T06:23:25.100Z,7.00
2023-02-12T06:25:56.408Z,7.33
2023-02-12T06:28:24.105Z,8.13
2023-02-12T06:30:51.410Z,9.03
2023-02-12T06:33:18.650Z,6.67
2023-02-12T06:35:45.945Z,8.63
2023-02-12T06:38:13.144Z,7.03
2023-02-12T06:40:40.273Z,6.90
2023-02-12T06:43:07.527Z,6.10
2023-02-12T06:45:34.768Z,6.70
2023-02-12T06:48:01.921Z,6.80
2023-02-12T06:50:29.301Z,7.03
2023-02-12T06:52:56.492Z,6.73
2023-02-12T06:55:23.620Z,6.70
2023-02-12T06:57:50.759Z,6.53
2023-02-12T07:00:18.196Z,6.57
2023-02-12T07:02:45.317Z,7.13
2023-02-12T07:05:12.527Z,6.13
2023-02-12T07:07:39.657Z,6.17
2023-02-12T07:10:08.674Z,6.50
2023-02-12T07:12:35.815Z,6.60
2023-02-12T07:15:02.960Z,6.47
2023-02-12T07:17:30.926Z,6.43
2023-02-12T07:19:58.072Z,6.57
2023-02-12T07:22:25.221Z,5.27
2023-02-12T07:24:52.354Z,5.77
2023-02-12T07:27:19.479Z,6.03
2023-02-12T07:29:46.653Z,6.40
2023-02-12T07:32:13.824Z,6.40
2023-02-12T07:34:40.998Z,5.33
2023-02-12T07:37:08.189Z,5.83
2023-02-12T07:39:35.341Z,4.97
2023-02-12T07:42:02.550Z,5.30
2023-02-12T07:44:29.731Z,5.70
2023-02-12T07:46:56.905Z,5.43
2023-02-12T07:49:24.268Z,6.03
2023-02-12T07:51:51.821Z,5.60
2023-02-12T07:54:19.233Z,5.00
2023-02-12T07:56:49.285Z,6.23
2023-02-12T07:59:17.868Z,6.37
2023-02-12T08:01:52.064Z,6.17
2023-02-12T08:04:20.924Z,5.40
2023-02-12T08:06:49.464Z,5.23
2023-02-12T08:09:17.865Z,5.33
2023-02-12T08:11:45.740Z,4.77
2023-02-12T08:14:13.679Z,5.50
2023-02-12T08:16:41.704Z,5.10
2023-02-12T08:19:17.917Z,4.73
2023-02-12T08:21:47.420Z,5.30
2023-02-12T08:24:14.695Z,4.50
2023-02-12T08:26:41.830Z,4.83
2023-02-12T08:29:10.939Z,4.93
2023-02-12T08:31:42.682Z,4.23
2023-02-12T08:34:20.705Z,4.80
2023-02-12T08:36:48.827Z,5.10
2023-02-12T08:39:16.233Z,4.47
2023-02-12T08:41:43.772Z,5.33
2023-02-12T08:44:11.464Z,4.83
2023-02-12T08:46:40.150Z,4.87
2023-02-12T08:49:10.098Z,4.57
2023-02-12T08:51:39.217Z,4.37
2023-02-12T08:54:07.747Z,4.30
2023-02-12T08:56:35.853Z,4.63
2023-02-12T08:59:04.847Z,3.77
2023-02-12T09:01:33.377Z,4.53
2023-02-12T09:04:00.601Z,3.50
2023-02-12T09:06:28.270Z,3.87
2023-02-12T09:08:56.067Z,4.27
2023-02-12T09:11:30.491Z,5.07
2023-02-12T09:13:59.512Z,4.37
2023-02-12T09:16:27.317Z,3.70
2023-02-12T09:18:55.007Z,4.33
2023-02-12T09:21:22.166Z,3.67
2023-02-12T09:23:49.714Z,4.50
2023-02-12T09:26:18.184Z,3.80
2023-02-12T09:28:45.493Z,3.80
2023-02-12T09:31:14.085Z,3.73
2023-02-12T09:33:41.677Z,3.30
2023-02-12T09:36:10.574Z,3.60
2023-02-12T09:38:38.196Z,3.93
2023-02-12T09:41:08.475Z,3.43
2023-02-12T09:43:35.584Z,3.73
2023-02-12T09:46:06.799Z,3.83
2023-02-12T09:48:36.997Z,3.60
2023-02-12T09:51:07.808Z,4.07
2023-02-12T09:53:36.337Z,3.63
2023-02-12T09:56:03.523Z,3.33
2023-02-12T09:58:35.529Z,3.40
2023-02-12T10:01:07.759Z,4.03
2023-02-12T10:03:34.892Z,3.40
2023-02-12T10:06:04.409Z,3.60
2023-02-12T10:08:35.505Z,3.07
2023-02-12T10:11:22.877Z,3.23
2023-02-12T10:13:58.318Z,3.30
2023-02-12T10:16:31.565Z,3.10
2023-02-12T10:19:06.847Z,3.70
2023-02-12T10:21:34.010Z,3.63
2023-02-12T10:24:11.969Z,3.47
2023-02-12T10:26:41.402Z,3.03
2023-02-12T10:29:22.638Z,3.33
2023-02-12T10:31:53.481Z,3.63
2023-02-12T10:34:25.799Z,3.10
2023-02-12T10:36:55.793Z,3.27
2023-02-12T10:39:22.914Z,2.70
2023-02-12T10:42:04.997Z,2.73
2023-02-12T10:44:32.187Z,3.27
2023-02-12T10:46:59.377Z,2.97
2023-02-12T10:49:26.837Z,3.10
2023-02-12T10:51:53.974Z,3.27
2023-02-12T10:54:39.245Z,2.57
2023-02-12T10:57:32.459Z,2.63
2023-02-12T11:00:21.821Z,3.23
2023-02-12T11:03:02.913Z,3.00
2023-02-12T11:05:31.113Z,2.83
2023-02-12T11:07:58.237Z,2.77
2023-02-12T11:10:33.061Z,2.90
2023-02-12T11:13:00.817Z,3.30
2023-02-12T11:15:31.244Z,2.97
2023-02-12T11:18:05.928Z,2.60
2023-02-12T11:20:41.199Z,2.50
2023-02-12T11:23:25.790Z,3.20
2023-02-12T11:25:58.459Z,2.90
2023-02-12T11:28:25.793Z,3.07
2023-02-12T11:30:52.940Z,2.70
2023-02-12T11:33:24.854Z,3.03
2023-02-12T11:36:00.815Z,2.97
2023-02-12T11:38:30.168Z,2.60
2023-02-12T11:40:59.953Z,2.90
2023-02-12T11:43:29.384Z,2.40
2023-02-12T11:45:57.073Z,2.50
2023-02-12T11:48:27.042Z,2.70
2023-02-12T11:50:55.802Z,2.43
2023-02-12T11:53:34.060Z,2.50
2023-02-12T11:56:03.763Z,2.37
2023-02-12T11:58:31.574Z,2.40
2023-02-12T12:01:19.399Z,2.60
2023-02-12T12:03:54.737Z,2.93
2023-02-12T12:06:28.066Z,2.53
2023-02-12T12:09:03.504Z,2.57
2023-02-12T12:11:30.635Z,2.90
2023-02-12T12:14:15.844Z,2.80
2023-02-12T12:17:14.219Z,2.80
2023-02-12T12:19:54.812Z,2.20
2023-02-12T12:22:40.521Z,2.70
2023-02-12T12:25:16.682Z,2.30
2023-02-12T12:28:08.021Z,3.47
2023-02-12T12:30:50.572Z,2.60
2023-02-12T12:33:44.519Z,2.93
2023-02-12T12:36:14.807Z,2.90
2023-02-12T12:38:42.043Z,3.00
2023-02-12T12:41:19.937Z,2.70
2023-02-12T12:43:50.274Z,2.67
2023-02-12T12:46:23.853Z,3.00
2023-02-12T12:49:17.274Z,2.60
2023-02-12T12:52:03.250Z,2.80
2023-02-12T12:54:40.657Z,2.70
2023-02-12T12:57:18.542Z,2.70
2023-02-12T12:59:45.702Z,2.53
2023-02-12T13:02:12.849Z,2.90
2023-02-12T13:04:42.966Z,2.80
2023-02-12T13:07:32.698Z,2.70
2023-02-12T13:10:20.687Z,3.30
2023-02-12T13:12:53.793Z,3.13
2023-02-12T13:15:20.898Z,3.23
2023-02-12T13:17:52.406Z,2.90
2023-02-12T13:20:37.972Z,3.07
2023-02-12T13:23:08.652Z,2.40
2023-02-12T13:25:44.501Z,2.67
2023-02-12T13:28:34.840Z,2.77
2023-02-12T13:31:06.748Z,2.60
2023-02-12T13:33:47.832Z,2.83
2023-02-12T13:36:15.452Z,2.30
2023-02-12T13:38:45.316Z,2.40
2023-02-12T13:41:13.059Z,2.97
2023-02-12T13:43:44.297Z,2.70
2023-02-12T13:46:14.559Z,2.70
2023-02-12T13:48:45.075Z,2.67
2023-02-12T13:51:19.278Z,2.47
2023-02-12T13:53:46.389Z,3.23
2023-02-12T13:56:30.185Z,2.73
2023-02-12T13:59:00.337Z,2.97
2023-02-12T14:01:42.503Z,2.20
2023-02-12T14:04:22.954Z,2.77
2023-02-12T14:06:55.053Z,2.40
2023-02-12T14:09:26.627Z,2.80
2023-02-12T14:11:54.358Z,2.67
2023-02-12T14:14:33.648Z,2.50
2023-02-12T14:17:19.738Z,3.23
2023-02-12T14:19:52.909Z,2.47
2023-02-12T14:22:28.936Z,3.00
2023-02-12T14:24:57.253Z,2.27
2023-02-12T14:27:24.422Z,2.57
2023-02-12T14:30:01.659Z,2.63
2023-02-12T14:32:46.922Z,2.10
2023-02-12T14:35:33.008Z,2.30
2023-02-12T14:38:12.231Z,2.87
2023-02-12T14:40:45.473Z,2.80
2023-02-12T14:43:31.606Z,2.60
2023-02-12T14:46:21.941Z,3.07
2023-02-12T14:48:52.531Z,2.88
2023-02-12T14:51:25.918Z,2.60
2023-02-12T14:53:54.551Z,2.77
2023-02-12T14:56:23.060Z,3.45
2023-02-12T14:58:51.340Z,3.30
2023-02-12T15:01:18.662Z,2.77
2023-02-12T15:03:53.322Z,2.80
2023-02-12T15:06:22.571Z,3.33
2023-02-12T15:08:52.615Z,2.50
2023-02-12T15:11:31.587Z,2.87
2023-02-12T15:14:05.042Z,3.23
2023-02-12T15:16:35.703Z,2.90
2023-02-12T15:19:06.564Z,3.10
2023-02-12T15:21:34.348Z,2.60
2023-02-12T15:24:01.513Z,4.87
2023-02-12T15:26:29.426Z,6.00
2023-02-12T15:28:56.700Z,4.17
2023-02-12T15:31:30.071Z,2.97
2023-02-12T15:33:58.485Z,3.50
2023-02-12T15:36:26.813Z,3.57
2023-02-12T15:38:55.423Z,3.27
2023-02-12T15:41:28.781Z,4.20
2023-02-12T15:43:56.225Z,3.90
2023-02-12T15:46:23.399Z,3.80
2023-02-12T15:48:50.612Z,3.40
2023-02-12T15:51:30.344Z,3.60
2023-02-12T15:53:59.144Z,3.67
2023-02-12T15:56:26.816Z,3.93
2023-02-12T15:58:55.310Z,3.73
2023-02-12T16:01:24.032Z,3.53
2023-02-12T16:03:52.785Z,4.10
2023-02-12T16:06:20.799Z,3.70
2023-02-12T16:08:50.040Z,4.27
2023-02-12T16:11:21.795Z,4.00
2023-02-12T16:13:57.416Z,3.33
2023-02-12T16:16:27.585Z,4.23
2023-02-12T16:19:05.650Z,4.23
2023-02-12T16:21:35.045Z,3.90
2023-02-12T16:24:02.433Z,3.80
2023-02-12T16:26:29.656Z,4.43
2023-02-12T16:28:58.128Z,3.57
2023-02-12T16:31:27.132Z,3.70
2023-02-12T16:33:57.668Z,3.70
2023-02-12T16:36:25.026Z,3.60
2023-02-12T16:38:53.796Z,3.87
2023-02-12T16:41:20.986Z,4.37
2023-02-12T16:43:49.528Z,3.57
2023-02-12T16:46:17.909Z,4.23
2023-02-12T16:48:49.108Z,4.37
2023-02-12T16:51:27.390Z,3.40
2023-02-12T16:53:57.478Z,3.43
2023-02-12T16:56:26.304Z,3.70
2023-02-12T16:59:02.762Z,3.60
2023-02-12T17:01:31.547Z,3.67
2023-02-12T17:04:00.109Z,4.13
2023-02-12T17:06:28.490Z,4.47
2023-02-12T17:08:56.063Z,3.93
2023-02-12T17:11:24.121Z,3.63
2023-02-12T17:13:52.505Z,4.17
2023-02-12T17:16:30.271Z,4.10
2023-02-12T17:18:58.959Z,4.50
2023-02-12T17:21:28.096Z,4.30
2023-02-12T17:23:55.245Z,3.80
2023-02-12T17:26:22.967Z,3.87
2023-02-12T17:28:50.246Z,4.00
2023-02-12T17:31:17.641Z,4.43
2023-02-12T17:33:44.832Z,4.97
2023-02-12T17:36:12.441Z,4.23
2023-02-12T17:38:39.590Z,4.13
2023-02-12T17:41:13.142Z,4.70
2023-02-12T17:43:40.310Z,3.90
2023-02-12T17:46:14.307Z,4.40
2023-02-12T17:48:41.530Z,3.67
2023-02-12T17:51:10.253Z,3.20
2023-02-12T17:53:37.381Z,4.10
2023-02-12T17:56:04.988Z,4.17
2023-02-12T17:58:32.410Z,3.53
2023-02-12T18:01:04.822Z,3.80
2023-02-12T18:03:32.002Z,3.73
2023-02-12T18:05:59.130Z,4.37
2023-02-12T18:08:26.293Z,4.23
2023-02-12T18:10:53.440Z,4.10
2023-02-12T18:13:20.883Z,3.83
2023-02-12T18:15:48.049Z,3.57
2023-02-12T18:18:16.653Z,3.90
2023-02-12T18:20:44.054Z,3.50
2023-02-12T18:23:11.431Z,3.43
2023-02-12T18:25:42.269Z,3.40
2023-02-12T18:28:09.793Z,3.77
2023-02-12T18:30:38.804Z,3.20
2023-02-12T18:33:06.428Z,3.93
2023-02-12T18:35:33.789Z,2.97
2023-02-12T18:38:00.962Z,3.33
2023-02-12T18:40:28.093Z,3.10
2023-02-12T18:42:55.328Z,3.13
2023-02-12T18:45:22.500Z,3.27
2023-02-12T18:47:49.658Z,3.33
2023-02-12T18:50:16.919Z,2.60
2023-02-12T18:52:44.050Z,3.50
2023-02-12T18:55:11.176Z,3.30
2023-02-12T18:57:38.309Z,4.13
2023-02-12T19:00:05.866Z,3.83
2023-02-12T19:02:33.124Z,4.27
2023-02-12T19:05:00.253Z,3.60
2023-02-12T19:07:27.387Z,3.07
2023-02-12T19:09:54.569Z,3.97
2023-02-12T19:12:21.761Z,3.53
2023-02-12T19:14:49.072Z,3.30
2023-02-12T19:17:16.248Z,4.03
2023-02-12T19:19:43.815Z,3.40
2023-02-12T19:22:10.984Z,3.77
2023-02-12T19:24:46.669Z,3.07
2023-02-12T19:27:14.422Z,4.20
2023-02-12T19:29:41.586Z,3.50
2023-02-12T19:32:08.801Z,3.63
2023-02-12T19:34:35.934Z,3.57
2023-02-12T19:37:03.068Z,3.50
2023-02-12T19:39:30.332Z,3.73
2023-02-12T19:41:57.496Z,3.73
2023-02-12T19:44:25.486Z,3.20
2023-02-12T19:46:53.515Z,3.93
2023-02-12T19:49:24.296Z,4.17
2023-02-12T19:51:51.834Z,4.03
2023-02-12T19:54:20.027Z,4.57
2023-02-12T19:56:47.492Z,3.80
2023-02-12T19:59:17.258Z,3.90
2023-02-12T20:01:44.981Z,4.30
2023-02-12T20:04:16.461Z,4.40
2023-02-12T20:06:45.811Z,3.67
2023-02-12T20:09:13.780Z,3.70
2023-02-12T20:11:41.281Z,3.90
2023-02-12T20:14:09.442Z,4.10
2023-02-12T20:16:38.986Z,4.10
2023-02-12T20:19:11.943Z,4.27
2023-02-12T20:21:39.552Z,3.43
2023-02-12T20:24:06.934Z,4.00
2023-02-12T20:26:34.786Z,4.60
2023-02-12T20:29:04.808Z,4.67
2023-02-12T20:31:33.781Z,4.60
2023-02-12T20:34:02.390Z,3.83
2023-02-12T20:36:33.896Z,4.53
2023-02-12T20:39:01.157Z,4.50
2023-02-12T20:41:29.172Z,4.00
2023-02-12T20:43:56.717Z,4.30
2023-02-12T20:46:25.114Z,4.00
2023-02-12T20:48:54.175Z,4.20
2023-02-12T20:51:22.766Z,4.10
2023-02-12T20:53:50.046Z,4.17
2023-02-12T20:56:18.376Z,3.80
2023-02-12T20:58:45.989Z,4.13
2023-02-12T21:01:13.162Z,4.10
2023-02-12T21:03:40.478Z,4.00
2023-02-12T21:06:08.277Z,3.70
2023-02-12T21:08:39.248Z,3.70
2023-02-12T21:11:12.993Z,4.20
2023-02-12T21:13:40.168Z,3.50
2023-02-12T21:16:09.338Z,4.20
2023-02-12T21:18:36.657Z,3.83
2023-02-12T21:21:07.922Z,3.87
2023-02-12T21:23:35.690Z,4.00
2023-02-12T21:26:03.405Z,3.33
2023-02-12T21:28:32.297Z,2.87
2023-02-12T21:31:19.854Z,3.77
2023-02-12T21:33:47.910Z,3.67
2023-02-12T21:36:16.517Z,3.40
2023-02-12T21:38:44.982Z,3.70
2023-02-12T21:41:13.966Z,3.70
2023-02-12T21:43:42.198Z,3.93
2023-02-12T21:46:09.732Z,4.17
2023-02-12T21:48:38.995Z,4.10
2023-02-12T21:51:06.585Z,3.70
2023-02-12T21:53:33.766Z,3.17
2023-02-12T21:56:04.636Z,3.30
2023-02-12T21:58:31.797Z,3.77
2023-02-12T22:01:06.546Z,3.63
2023-02-12T22:03:33.723Z,3.13
2023-02-12T22:06:01.842Z,3.50
2023-02-12T22:08:29.008Z,4.10
2023-02-12T22:10:56.384Z,3.70
2023-02-12T22:13:23.803Z,3.83
2023-02-12T22:15:50.947Z,3.40
2023-02-12T22:18:18.084Z,3.60
2023-02-12T22:20:45.231Z,3.73
2023-02-12T22:23:12.480Z,4.20
2023-02-12T22:25:39.633Z,4.57
2023-02-12T22:28:06.841Z,3.87
2023-02-12T22:30:34.064Z,3.83
2023-02-12T22:33:01.184Z,3.93
2023-02-12T22:35:28.313Z,4.00
2023-02-12T22:37:55.451Z,3.37
2023-02-12T22:40:22.600Z,3.60
2023-02-12T22:42:49.730Z,3.90
2023-02-12T22:45:16.923Z,4.33
2023-02-12T22:47:44.144Z,3.50
2023-02-12T22:50:11.450Z,3.57
2023-02-12T22:52:38.698Z,4.00
2023-02-12T22:55:06.017Z,4.10
2023-02-12T22:57:33.189Z,3.93
2023-02-12T23:00:00.323Z,3.87
2023-02-12T23:02:27.452Z,3.80
2023-02-12T23:04:54.590Z,4.00
2023-02-12T23:07:21.742Z,4.07
2023-02-12T23:09:48.852Z,4.23
2023-02-12T23:12:15.996Z,3.67
2023-02-12T23:14:43.115Z,3.77
2023-02-12T23:17:10.230Z,4.40
2023-02-12T23:19:37.385Z,4.10
2023-02-12T23:22:04.568Z,4.00
2023-02-12T23:24:31.796Z,4.23
2023-02-12T23:26:58.983Z,3.70
2023-02-12T23:29:26.153Z,3.70
2023-02-12T23:31:53.379Z,3.70
2023-02-12T23:34:20.548Z,4.10
2023-02-12T23:36:47.681Z,4.37
2023-02-12T23:39:14.853Z,4.17
2023-02-12T23:41:44.433Z,4.40
2023-02-12T23:44:11.578Z,3.80
2023-02-12T23:46:38.888Z,3.80
2023-02-12T23:49:06.063Z,3.57
2023-02-12T23:51:33.399Z,4.00
2023-02-12T23:54:00.592Z,4.03
2023-02-12T23:56:27.765Z,4.20
2023-02-12T23:58:57.978Z,3.63
